createdAt,value
2022-09-20T00:00:50.617Z,1.60
2022-09-20T00:03:18.260Z,1.90
2022-09-20T00:05:46.264Z,2.53
2022-09-20T00:08:15.583Z,2.13
2022-09-20T00:10:43.101Z,2.30
2022-09-20T00:13:12.187Z,2.45
2022-09-20T00:15:44.184Z,1.65
2022-09-20T00:18:12.330Z,1.77
2022-09-20T00:20:49.856Z,1.73
2022-09-20T00:23:17.511Z,1.75
2022-09-20T00:25:44.532Z,1.90
2022-09-20T00:28:11.695Z,2.00
2022-09-20T00:30:39.268Z,1.63
2022-09-20T00:33:06.036Z,2.63
2022-09-20T00:35:33.014Z,2.35
2022-09-20T00:37:59.775Z,2.13
2022-09-20T00:40:30.239Z,1.90
2022-09-20T00:42:57.222Z,2.45
2022-09-20T00:45:27.126Z,1.55
2022-09-20T00:47:53.988Z,1.67
2022-09-20T00:50:23.832Z,1.15
2022-09-20T00:53:19.436Z,1.30
2022-09-20T00:55:53.601Z,1.38
2022-09-20T00:58:24.744Z,2.15
2022-09-20T01:00:54.040Z,1.50
2022-09-20T01:03:22.990Z,1.17
2022-09-20T01:05:54.193Z,2.97
2022-09-20T01:08:24.527Z,1.95
2022-09-20T01:10:52.451Z,1.52
2022-09-20T01:13:19.238Z,1.40
2022-09-20T01:15:47.887Z,1.85
2022-09-20T01:18:17.251Z,2.92
2022-09-20T01:20:47.099Z,1.88
2022-09-20T01:23:19.715Z,2.30
2022-09-20T01:26:19.441Z,1.67
2022-09-20T01:28:49.412Z,1.77
2022-09-20T01:31:36.010Z,1.60
2022-09-20T01:34:12.217Z,1.85
2022-09-20T01:36:57.716Z,1.88
2022-09-20T01:39:54.025Z,1.65
2022-09-20T01:42:33.004Z,1.40
2022-09-20T01:45:24.297Z,2.45
2022-09-20T01:48:10.231Z,2.65
2022-09-20T01:51:04.678Z,1.45
2022-09-20T01:53:46.564Z,1.95
2022-09-20T01:56:38.136Z,1.98
2022-09-20T01:59:48.356Z,1.27
2022-09-20T02:02:39.467Z,2.55
2022-09-20T02:05:15.225Z,2.28
2022-09-20T02:07:54.797Z,1.10
2022-09-20T02:10:46.576Z,2.42
2022-09-20T02:13:33.293Z,2.15
2022-09-20T02:16:09.144Z,1.58
2022-09-20T02:19:03.683Z,2.13
2022-09-20T02:21:36.941Z,1.73
2022-09-20T02:27:23.253Z,2.53
2022-09-20T02:30:08.818Z,1.35
2022-09-20T02:33:08.024Z,1.67
2022-09-20T02:36:07.700Z,1.30
2022-09-20T02:38:49.516Z,1.83
2022-09-20T02:41:27.980Z,1.63
2022-09-20T02:44:21.207Z,2.13
2022-09-20T02:47:00.024Z,1.52
2022-09-20T02:50:04.521Z,1.73
2022-09-20T02:53:14.679Z,1.50
2022-09-20T02:56:09.776Z,1.42
2022-09-20T02:58:36.484Z,1.77
2022-09-20T03:01:21.836Z,1.30
2022-09-20T03:04:10.635Z,2.03
2022-09-20T03:07:15.350Z,1.52
2022-09-20T03:10:14.646Z,1.02
2022-09-20T03:12:50.633Z,1.88
2022-09-20T03:15:45.437Z,1.50
2022-09-20T03:18:17.269Z,1.55
2022-09-20T03:20:59.024Z,0.93
2022-09-20T03:23:44.823Z,1.40
2022-09-20T03:26:35.191Z,1.25
2022-09-20T03:29:27.176Z,1.13
2022-09-20T03:31:59.370Z,1.23
2022-09-20T03:34:56.715Z,1.30
2022-09-20T03:37:26.512Z,1.38
2022-09-20T03:40:12.321Z,1.40
2022-09-20T03:42:48.945Z,1.30
2022-09-20T03:45:45.295Z,2.60
2022-09-20T03:48:49.510Z,2.15
2022-09-20T03:51:48.460Z,1.10
2022-09-20T03:54:52.924Z,1.58
2022-09-20T03:57:38.983Z,1.40
2022-09-20T04:00:31.009Z,1.35
2022-09-20T04:03:29.029Z,1.30
2022-09-20T04:06:20.618Z,0.80
2022-09-20T04:09:20.761Z,1.73
2022-09-20T04:12:08.524Z,1.48
2022-09-20T04:14:47.532Z,1.75
2022-09-20T04:17:42.943Z,1.52
2022-09-20T04:20:20.566Z,1.35
2022-09-20T04:22:51.444Z,1.20
2022-09-20T04:25:24.019Z,2.03
2022-09-20T04:28:00.178Z,1.88
2022-09-20T04:30:31.953Z,1.33
2022-09-20T04:33:29.139Z,1.88
2022-09-20T04:36:22.684Z,1.40
2022-09-20T04:39:06.629Z,2.30
2022-09-20T04:42:05.339Z,1.98
2022-09-20T04:44:38.047Z,1.52
2022-09-20T04:47:34.830Z,1.58
2022-09-20T04:50:19.785Z,1.33
2022-09-20T04:53:24.562Z,1.42
2022-09-20T04:55:54.583Z,2.20
2022-09-20T04:59:01.374Z,1.95
2022-09-20T05:02:05.459Z,1.33
2022-09-20T05:04:45.350Z,1.58
2022-09-20T05:07:16.572Z,1.50
2022-09-20T05:10:21.800Z,2.05
2022-09-20T05:13:01.023Z,2.35
2022-09-20T05:15:43.429Z,1.77
2022-09-20T05:18:35.689Z,1.50
2022-09-20T05:21:16.096Z,1.33
2022-09-20T05:23:51.905Z,1.55
2022-09-20T05:26:44.198Z,1.80
2022-09-20T05:29:24.610Z,2.13
2022-09-20T05:32:10.636Z,1.80
2022-09-20T05:35:13.798Z,2.30
2022-09-20T05:38:25.278Z,1.53
2022-09-20T05:41:13.841Z,1.90
2022-09-20T05:43:56.364Z,2.63
2022-09-20T05:46:50.016Z,1.43
2022-09-20T05:49:53.636Z,1.40
2022-09-20T05:52:29.142Z,1.65
2022-09-20T05:55:24.134Z,1.40
2022-09-20T05:58:15.194Z,1.60
2022-09-20T06:01:27.241Z,1.45
2022-09-20T06:04:09.372Z,1.98
2022-09-20T06:06:57.292Z,1.50
2022-09-20T06:09:49.971Z,1.60
2022-09-20T06:12:43.679Z,1.40
2022-09-20T06:17:49.813Z,2.00
2022-09-20T06:20:51.907Z,1.05
2022-09-20T06:23:19.204Z,1.52
2022-09-20T06:26:01.915Z,1.33
2022-09-20T06:28:43.169Z,1.58
2022-09-20T06:31:11.392Z,1.45
2022-09-20T06:33:47.113Z,1.20
2022-09-20T06:36:44.217Z,1.48
2022-09-20T06:39:51.403Z,0.88
2022-09-20T06:42:18.335Z,1.67
2022-09-20T06:44:45.400Z,1.80
2022-09-20T06:47:14.156Z,1.20
2022-09-20T06:49:42.780Z,1.30
2022-09-20T06:52:18.534Z,1.10
2022-09-20T06:54:51.806Z,1.20
2022-09-20T06:57:24.142Z,1.63
2022-09-20T06:59:50.976Z,1.60
2022-09-20T07:02:17.765Z,0.77
2022-09-20T07:04:45.181Z,1.23
2022-09-20T07:07:17.986Z,1.02
2022-09-20T07:09:45.257Z,0.95
2022-09-20T07:12:12.381Z,1.17
2022-09-20T07:14:39.585Z,2.65
2022-09-20T07:17:07.550Z,2.28
2022-09-20T07:19:35.175Z,1.95
2022-09-20T07:22:02.348Z,1.00
2022-09-20T07:24:32.253Z,1.50
2022-09-20T07:27:04.994Z,1.00
2022-09-20T07:29:31.918Z,1.15
2022-09-20T07:31:58.933Z,1.70
2022-09-20T07:34:26.521Z,1.35
2022-09-20T07:36:53.293Z,1.50
2022-09-20T07:39:20.133Z,1.85
2022-09-20T07:41:51.194Z,1.92
2022-09-20T07:44:21.946Z,1.00
2022-09-20T07:46:53.959Z,1.88
2022-09-20T07:49:21.995Z,1.17
2022-09-20T07:51:50.728Z,1.27
2022-09-20T07:54:17.792Z,2.28
2022-09-20T07:56:44.957Z,0.95
2022-09-20T07:59:13.155Z,1.20
2022-09-20T08:01:40.458Z,1.00
2022-09-20T08:04:09.052Z,2.15
2022-09-20T08:06:41.181Z,1.90
2022-09-20T08:09:11.270Z,1.75
2022-09-20T08:11:39.799Z,1.40
2022-09-20T08:14:08.794Z,1.02
2022-09-20T08:16:42.952Z,1.30
2022-09-20T08:19:15.989Z,1.17
2022-09-20T08:21:42.917Z,1.27
2022-09-20T08:24:09.979Z,1.02
2022-09-20T08:26:37.161Z,1.10
2022-09-20T08:29:07.989Z,1.08
2022-09-20T08:31:38.434Z,0.90
2022-09-20T08:34:07.068Z,1.13
2022-09-20T08:36:37.218Z,0.80
2022-09-20T08:42:22.977Z,0.88
2022-09-20T08:44:58.184Z,0.63
2022-09-20T08:47:36.104Z,0.52
2022-09-20T08:50:10.051Z,1.33
2022-09-20T08:52:40.832Z,0.40
2022-09-20T08:55:17.704Z,0.60
2022-09-20T08:57:49.086Z,0.52
2022-09-20T09:00:19.669Z,0.65
2022-09-20T09:02:47.591Z,1.80
2022-09-20T09:05:35.105Z,0.88
2022-09-20T09:08:16.718Z,0.55
2022-09-20T09:10:47.820Z,0.50
2022-09-20T09:13:22.564Z,0.57
2022-09-20T09:15:57.753Z,0.50
2022-09-20T09:18:35.195Z,2.10
2022-09-20T09:21:06.319Z,0.70
2022-09-20T09:23:45.838Z,0.70
2022-09-20T09:26:25.045Z,0.73
2022-09-20T09:29:09.834Z,0.93
2022-09-20T09:31:38.534Z,0.68
2022-09-20T09:34:22.062Z,0.55
2022-09-20T09:36:48.896Z,0.90
2022-09-20T09:39:38.002Z,0.93
2022-09-20T09:42:23.888Z,0.77
2022-09-20T09:44:50.731Z,0.45
2022-09-20T09:47:29.267Z,8.43
2022-09-20T09:50:01.894Z,1.30
2022-09-20T09:52:33.461Z,1.30
2022-09-20T09:55:05.501Z,0.55
2022-09-20T09:57:33.884Z,0.80
2022-09-20T10:00:20.533Z,1.38
2022-09-20T10:03:26.557Z,1.10
2022-09-20T10:06:06.342Z,1.10
2022-09-20T10:08:59.081Z,0.52
2022-09-20T10:11:50.429Z,0.73
2022-09-20T10:14:31.319Z,2.70
2022-09-20T10:17:00.858Z,0.98
2022-09-20T10:19:49.822Z,0.80
2022-09-20T10:23:06.808Z,0.70
2022-09-20T10:26:13.513Z,0.80
2022-09-20T10:28:52.428Z,0.85
2022-09-20T10:32:07.086Z,0.75
2022-09-20T10:34:46.102Z,0.70
2022-09-20T10:37:35.168Z,0.80
2022-09-20T10:40:22.065Z,0.70
2022-09-20T10:43:17.177Z,0.90
2022-09-20T10:48:53.219Z,1.00
2022-09-20T10:51:29.236Z,1.02
2022-09-20T10:54:17.008Z,0.90
2022-09-20T10:56:49.280Z,0.88
2022-09-20T10:59:19.319Z,0.90
2022-09-20T11:01:46.375Z,0.65
2022-09-20T11:04:33.959Z,1.00
2022-09-20T11:07:30.715Z,2.40
2022-09-20T11:10:13.437Z,1.73
2022-09-20T11:12:46.250Z,1.00
2022-09-20T11:15:19.849Z,1.77
2022-09-20T11:18:01.469Z,1.23
2022-09-20T11:20:32.675Z,1.23
2022-09-20T11:23:22.513Z,0.73
2022-09-20T11:26:02.042Z,1.23
2022-09-20T11:28:42.532Z,0.98
2022-09-20T11:31:38.409Z,1.25
2022-09-20T11:34:42.305Z,1.08
2022-09-20T11:37:09.740Z,0.93
2022-09-20T11:39:39.779Z,0.80
2022-09-20T11:42:12.731Z,0.90
2022-09-20T11:44:41.657Z,1.30
2022-09-20T11:47:50.338Z,1.08
2022-09-20T11:50:39.231Z,0.93
2022-09-20T11:53:24.403Z,1.35
2022-09-20T11:56:28.225Z,0.55
2022-09-20T11:59:02.608Z,1.27
2022-09-20T12:01:40.727Z,0.70
2022-09-20T12:04:34.544Z,0.82
2022-09-20T12:07:10.666Z,1.20
2022-09-20T12:09:42.866Z,0.93
2022-09-20T12:12:45.450Z,0.70
2022-09-20T12:15:39.052Z,0.80
2022-09-20T12:18:37.253Z,0.93
2022-09-20T12:21:15.365Z,1.00
2022-09-20T12:23:52.895Z,0.82
2022-09-20T12:26:22.559Z,1.10
2022-09-20T12:28:51.738Z,0.88
2022-09-20T12:31:18.667Z,0.73
2022-09-20T12:34:02.021Z,1.15
2022-09-20T12:39:20.830Z,0.77
2022-09-20T12:42:02.903Z,0.60
2022-09-20T12:44:51.059Z,0.65
2022-09-20T12:47:23.203Z,1.02
2022-09-20T12:50:11.720Z,0.63
2022-09-20T12:53:04.065Z,0.98
2022-09-20T12:55:46.281Z,0.75
2022-09-20T12:58:15.829Z,0.75
2022-09-20T13:00:46.433Z,0.70
2022-09-20T13:03:23.272Z,0.70
2022-09-20T13:06:12.372Z,0.70
2022-09-20T13:09:02.512Z,1.13
2022-09-20T13:11:39.902Z,0.73
2022-09-20T13:14:07.049Z,0.90
2022-09-20T13:16:39.650Z,1.00
2022-09-20T13:19:16.085Z,1.08
2022-09-20T13:21:57.663Z,0.88
2022-09-20T13:24:27.009Z,1.50
2022-09-20T13:26:56.279Z,0.95
2022-09-20T13:29:27.414Z,1.13
2022-09-20T13:31:56.404Z,0.60
2022-09-20T13:34:26.407Z,1.02
2022-09-20T13:36:56.631Z,0.82
2022-09-20T13:39:42.127Z,1.45
2022-09-20T13:42:19.884Z,0.88
2022-09-20T13:44:48.053Z,1.20
2022-09-20T13:47:24.195Z,1.00
2022-09-20T13:49:51.322Z,1.13
2022-09-20T13:52:26.784Z,1.08
2022-09-20T13:54:55.327Z,1.30
2022-09-20T13:57:27.587Z,1.15
2022-09-20T13:59:55.663Z,1.23
2022-09-20T14:02:26.931Z,0.85
2022-09-20T14:04:56.533Z,1.05
2022-09-20T14:07:26.137Z,1.02
2022-09-20T14:09:54.176Z,0.98
2022-09-20T14:12:23.976Z,1.42
2022-09-20T14:14:51.750Z,0.70
2022-09-20T14:17:21.675Z,0.43
2022-09-20T14:19:51.771Z,0.80
2022-09-20T14:22:29.198Z,0.85
2022-09-20T14:25:02.109Z,1.30
2022-09-20T14:29:58.656Z,1.58
2022-09-20T14:32:39.706Z,0.80
2022-09-20T14:35:18.066Z,0.85
2022-09-20T14:37:52.185Z,1.08
2022-09-20T14:40:30.367Z,1.05
2022-09-20T14:43:05.341Z,0.77
2022-09-20T14:45:34.858Z,0.88
2022-09-20T14:48:11.073Z,1.13
2022-09-20T14:51:17.887Z,0.60
2022-09-20T14:53:50.475Z,1.10
2022-09-20T14:56:30.900Z,0.85
2022-09-20T14:59:11.736Z,0.95
2022-09-20T15:01:45.068Z,1.63
2022-09-20T15:04:21.635Z,1.30
2022-09-20T15:06:50.526Z,0.80
2022-09-20T15:09:19.758Z,0.70
2022-09-20T15:11:46.969Z,0.70
2022-09-20T15:14:13.916Z,0.65
2022-09-20T15:16:40.839Z,0.80
2022-09-20T15:19:09.151Z,0.52
2022-09-20T15:21:36.450Z,0.93
2022-09-20T15:24:03.540Z,0.70
2022-09-20T15:26:32.876Z,0.85
2022-09-20T15:29:00.750Z,0.80
2022-09-20T15:31:28.742Z,1.33
2022-09-20T15:33:55.713Z,0.77
2022-09-20T15:36:22.550Z,1.08
2022-09-20T15:38:49.460Z,0.52
2022-09-20T15:41:16.309Z,1.20
2022-09-20T15:43:43.301Z,1.25
2022-09-20T15:46:22.558Z,0.80
2022-09-20T15:48:49.499Z,0.93
2022-09-20T15:51:16.781Z,1.00
2022-09-20T15:53:46.039Z,0.63
2022-09-20T15:56:21.635Z,0.80
2022-09-20T15:58:59.409Z,0.63
2022-09-20T16:01:27.362Z,0.63
2022-09-20T16:03:54.856Z,1.08
2022-09-20T16:06:23.292Z,0.80
2022-09-20T16:08:50.720Z,1.00
2022-09-20T16:11:23.327Z,0.60
2022-09-20T16:13:55.467Z,0.88
2022-09-20T16:16:22.601Z,1.25
2022-09-20T16:19:08.046Z,1.80
2022-09-20T16:21:36.506Z,1.38
2022-09-20T16:24:07.722Z,0.88
2022-09-20T16:26:37.297Z,1.73
2022-09-20T16:29:05.172Z,0.68
2022-09-20T16:31:40.835Z,0.88
2022-09-20T16:34:35.559Z,0.80
2022-09-20T16:37:09.041Z,0.70
2022-09-20T16:39:36.445Z,0.90
2022-09-20T16:42:09.566Z,0.65
2022-09-20T16:44:38.418Z,0.82
2022-09-20T16:47:09.980Z,1.15
2022-09-20T16:49:38.185Z,0.90
2022-09-20T16:52:09.579Z,1.05
2022-09-20T16:54:37.372Z,1.17
2022-09-20T16:57:05.177Z,1.40
2022-09-20T16:59:32.168Z,1.13
2022-09-20T17:01:59.055Z,0.90
2022-09-20T17:04:25.951Z,2.63
2022-09-20T17:06:52.856Z,1.23
2022-09-20T17:09:19.853Z,0.98
2022-09-20T17:11:50.183Z,2.08
2022-09-20T17:14:19.734Z,1.17
2022-09-20T17:16:50.217Z,0.80
2022-09-20T17:19:19.207Z,0.95
2022-09-20T17:21:50.764Z,1.45
2022-09-20T17:24:22.691Z,0.95
2022-09-20T17:26:50.897Z,1.50
2022-09-20T17:29:18.939Z,1.45
2022-09-20T17:31:54.050Z,2.20
2022-09-20T17:34:22.191Z,1.00
2022-09-20T17:36:50.487Z,0.80
2022-09-20T17:39:18.165Z,1.00
2022-09-20T17:41:47.762Z,1.10
2022-09-20T17:44:15.452Z,0.82
2022-09-20T17:46:44.688Z,0.70
2022-09-20T17:49:13.981Z,0.98
2022-09-20T17:51:43.205Z,0.77
2022-09-20T17:54:14.004Z,1.10
2022-09-20T17:56:42.593Z,1.23
2022-09-20T17:59:10.995Z,1.00
2022-09-20T18:01:38.645Z,1.30
2022-09-20T18:04:07.115Z,1.60
2022-09-20T18:06:38.427Z,1.95
2022-09-20T18:09:07.731Z,2.20
2022-09-20T18:11:46.711Z,2.33
2022-09-20T18:14:13.528Z,2.10
2022-09-20T18:16:41.101Z,2.40
2022-09-20T18:19:09.037Z,2.08
2022-09-20T18:21:37.579Z,2.08
2022-09-20T18:24:10.117Z,2.15
2022-09-20T18:26:38.076Z,3.05
2022-09-20T18:29:11.222Z,3.40
2022-09-20T18:31:44.686Z,3.28
2022-09-20T18:34:22.823Z,3.45
2022-09-20T18:36:57.971Z,4.18
2022-09-20T18:39:32.769Z,4.90
2022-09-20T18:42:00.056Z,4.57
2022-09-20T18:44:28.196Z,4.13
2022-09-20T18:46:55.358Z,3.50
2022-09-20T18:49:22.816Z,2.85
2022-09-20T18:51:50.365Z,2.53
2022-09-20T18:54:18.900Z,3.08
2022-09-20T18:56:47.801Z,2.03
2022-09-20T18:59:24.101Z,1.90
2022-09-20T19:01:52.867Z,1.60
2022-09-20T19:04:49.282Z,1.95
2022-09-20T19:07:54.935Z,1.75
2022-09-20T19:10:54.109Z,2.13
2022-09-20T19:13:29.796Z,1.83
2022-09-20T19:16:04.603Z,1.80
2022-09-20T19:19:01.882Z,2.10
2022-09-20T19:21:37.020Z,5.75
2022-09-20T19:24:22.520Z,7.25
2022-09-20T19:26:49.636Z,13.57
2022-09-20T19:29:22.485Z,15.07
2022-09-20T19:31:51.606Z,13.68
2022-09-20T19:34:22.650Z,13.55
2022-09-20T19:37:18.615Z,12.70
2022-09-20T19:39:48.594Z,17.60
2022-09-20T19:42:40.595Z,10.80
2022-09-20T19:45:31.636Z,7.53
2022-09-20T19:48:06.878Z,6.03
2022-09-20T19:50:53.046Z,5.00
2022-09-20T19:53:24.180Z,3.50
2022-09-20T19:55:59.692Z,2.38
2022-09-20T19:58:26.830Z,2.67
2022-09-20T20:00:54.184Z,2.83
2022-09-20T20:03:23.598Z,3.10
2022-09-20T20:06:08.350Z,2.42
2022-09-20T20:08:50.611Z,2.17
2022-09-20T20:11:41.928Z,2.95
2022-09-20T20:14:28.538Z,3.65
2022-09-20T20:17:14.368Z,4.53
2022-09-20T20:19:56.200Z,3.67
2022-09-20T20:23:00.905Z,3.25
2022-09-20T20:25:31.271Z,3.80
2022-09-20T20:27:58.280Z,3.60
2022-09-20T20:30:25.152Z,3.85
2022-09-20T20:32:58.139Z,2.63
2022-09-20T20:35:26.003Z,2.78
2022-09-20T20:37:53.492Z,1.90
2022-09-20T20:40:20.860Z,2.15
2022-09-20T20:42:48.608Z,2.05
2022-09-20T20:45:15.792Z,2.20
2022-09-20T20:47:44.064Z,1.65
2022-09-20T20:50:11.811Z,3.47
2022-09-20T20:52:38.991Z,2.05
2022-09-20T20:55:06.294Z,2.30
2022-09-20T20:57:34.513Z,2.08
2022-09-20T21:00:01.437Z,1.95
2022-09-20T21:02:28.321Z,2.10
2022-09-20T21:04:55.145Z,2.60
2022-09-20T21:07:22.056Z,2.50
2022-09-20T21:09:48.838Z,2.40
2022-09-20T21:12:18.442Z,2.25
2022-09-20T21:14:45.306Z,2.00
2022-09-20T21:17:12.077Z,2.47
2022-09-20T21:19:38.867Z,2.42
2022-09-20T21:22:05.723Z,2.10
2022-09-20T21:24:32.504Z,2.10
2022-09-20T21:26:59.468Z,3.13
2022-09-20T21:29:26.355Z,2.30
2022-09-20T21:31:53.177Z,2.70
2022-09-20T21:34:20.018Z,2.25
2022-09-20T21:36:46.770Z,2.35
2022-09-20T21:39:13.735Z,2.03
2022-09-20T21:41:41.002Z,2.42
2022-09-20T21:44:12.160Z,2.20
2022-09-20T21:46:41.112Z,1.90
2022-09-20T21:49:10.034Z,2.45
2022-09-20T21:51:37.855Z,1.73
2022-09-20T21:54:05.377Z,2.17
2022-09-20T21:56:35.822Z,2.10
2022-09-20T21:59:03.865Z,2.05
2022-09-20T22:01:34.528Z,2.03
2022-09-20T22:04:05.675Z,1.88
2022-09-20T22:06:38.432Z,2.20
2022-09-20T22:09:08.514Z,2.00
2022-09-20T22:11:39.064Z,1.92
2022-09-20T22:14:06.606Z,1.52
2022-09-20T22:16:36.132Z,2.30
2022-09-20T22:19:02.881Z,2.17
2022-09-20T22:21:32.383Z,2.10
2022-09-20T22:24:01.730Z,2.22
2022-09-20T22:26:32.021Z,2.25
2022-09-20T22:28:59.113Z,1.67
2022-09-20T22:31:28.414Z,2.08
2022-09-20T22:33:57.424Z,2.72
2022-09-20T22:36:30.552Z,1.80
2022-09-20T22:41:24.773Z,1.75
2022-09-20T22:43:52.104Z,1.45
2022-09-20T22:46:22.173Z,2.10
2022-09-20T22:48:49.465Z,1.40
2022-09-20T22:51:35.749Z,1.50
2022-09-20T22:54:08.319Z,1.40
2022-09-20T22:56:36.479Z,1.10
2022-09-20T22:59:06.739Z,1.42
2022-09-20T23:01:36.584Z,1.30
2022-09-20T23:04:07.992Z,1.60
2022-09-20T23:06:49.789Z,1.63
2022-09-20T23:09:18.238Z,1.70
2022-09-20T23:11:45.765Z,1.35
2022-09-20T23:14:15.631Z,2.10
2022-09-20T23:16:43.186Z,1.63
2022-09-20T23:19:11.161Z,2.08
2022-09-20T23:21:39.677Z,2.13
2022-09-20T23:24:10.332Z,1.98
2022-09-20T23:26:39.246Z,1.23
2022-09-20T23:29:09.336Z,1.90
2022-09-20T23:31:37.849Z,1.50
2022-09-20T23:34:06.753Z,1.40
2022-09-20T23:36:36.032Z,2.28
2022-09-20T23:39:03.222Z,2.38
2022-09-20T23:41:30.587Z,2.15
2022-09-20T23:43:57.942Z,1.90
2022-09-20T23:46:26.735Z,2.10
2022-09-20T23:48:54.183Z,3.17
2022-09-20T23:51:23.706Z,2.08
2022-09-20T23:53:51.829Z,1.73
2022-09-20T23:56:19.709Z,2.33
2022-09-20T23:58:47.100Z,2.28
